This is the latest recevied weather packets stored in our database for station/object CQ0XPG-11. If no packets are shown the sender has not sent any weather packets the latest 10 day(s).
| Time | Temp. | Humidity | Pressure | Rain* | Wind** | Luminosity | Snow |
|---|---|---|---|---|---|---|---|
| 1778171490 | 18.89° C | 54% | 998.9 hPa | 0 mm | - | - | - |
| 1778171199 | 18.33° C | 53% | 998.9 hPa | 0 mm | - | - | - |
| 1778170880 | 18.89° C | 51% | 998.9 hPa | 0 mm | - | - | - |
| 1778170593 | 18.89° C | 52% | 998.9 hPa | 0 mm | - | - | - |
| 1778170279 | 18.89° C | 49% | 998.9 hPa | 0 mm | - | - | - |
| 1778169986 | 19.44° C | 47% | 998.9 hPa | 0 mm | - | - | - |
| 1778169678 | 19.44° C | 47% | 999 hPa | 0 mm | - | - | - |
| 1778169379 | 19.44° C | 47% | 998.9 hPa | 0 mm | - | - | - |
| 1778169062 | 18.89° C | 47% | 999 hPa | 0 mm | - | - | - |
| 1778168775 | 18.89° C | 47% | 999.1 hPa | 0 mm | - | - | - |
| 1778168454 | 19.44° C | 45% | 999 hPa | 0 mm | - | - | - |
| 1778168167 | 19.44° C | 44% | 999.1 hPa | 0 mm | - | - | - |
| 1778167863 | 19.44° C | 44% | 999.1 hPa | 0 mm | - | - | - |
| 1778167558 | 19.44° C | 46% | 999.2 hPa | 0 mm | - | - | - |
| 1778167258 | 18.89° C | 46% | 999.2 hPa | 0 mm | - | - | - |
| 1778166954 | 18.89° C | 46% | 999.3 hPa | 0 mm | - | - | - |
| 1778166641 | 19.44° C | 45% | 999.2 hPa | 0 mm | - | - | - |
| 1778166348 | 19.44° C | 45% | 999.3 hPa | 0 mm | - | - | - |
| 1778166053 | 19.44° C | 46% | 999.3 hPa | 0 mm | - | - | - |
| 1778165742 | 19.44° C | 45% | 999.5 hPa | 0 mm | - | - | - |
| 1778165422 | 19.44° C | 45% | 999.6 hPa | 0 mm | - | - | - |
| 1778165136 | 20° C | 41% | 999.5 hPa | 0 mm | - | - | - |
| 1778164816 | 20° C | 42% | 999.5 hPa | 0 mm | - | - | - |
| 1778164531 | 19.44° C | 45% | 999.6 hPa | 0 mm | - | - | - |
| 1778164234 | 19.44° C | 46% | 999.6 hPa | 0 mm | - | - | - |
* Rain since midnight (hover to see other rain measurements)
** Current wind speed in m/s (hover to see current wind gust speed)